Time;durP1;ratioP1;P1;durP2;ratioP2;P2;SDS_P1;SDS_P2;PMS_P1;PMS_P2;Temp;Humidity;BMP_temperature;BMP_pressure;BME280_temperature;BME280_humidity;BME280_pressure;Samples;Min_cycle;Max_cycle;Signal;HPM_P1;HPM_P2
2023/03/19 00:01:44;;;;;;;0.10;0.10;;;;;;;19.02;53.30;101097.34;5009564;28;20046;-60
2023/03/19 00:04:09;;;;;;;0.22;0.22;;;;;;;18.93;53.48;101101.69;5009930;28;20391;-61
2023/03/19 00:06:35;;;;;;;0.10;0.10;;;;;;;19.11;52.83;101107.41;5009449;28;20033;-62
2023/03/19 00:09:01;;;;;;;0.10;0.10;;;;;;;18.91;53.73;101109.31;5009945;28;20030;-61
2023/03/19 00:11:26;;;;;;;0.10;0.10;;;;;;;18.78;54.01;101113.41;5009732;28;20580;-61
2023/03/19 00:13:52;;;;;;;0.10;0.10;;;;;;;18.89;53.71;101100.59;5009731;28;20034;-61
2023/03/19 00:16:17;;;;;;;0.20;0.20;;;;;;;19.20;52.98;101113.91;5014522;28;20509;-60
2023/03/19 00:18:42;;;;;;;0.30;0.30;;;;;;;18.84;53.68;101115.06;5014084;28;20521;-61
2023/03/19 00:21:08;;;;;;;0.10;0.10;;;;;;;18.71;54.41;101112.84;5014186;28;20030;-61
2023/03/19 00:23:35;;;;;;;0.20;0.20;;;;;;;18.56;54.51;101112.84;5014168;28;20034;-59
2023/03/19 00:26:01;;;;;;;0.25;0.25;;;;;;;18.75;54.56;101111.22;5014132;28;20497;-61
2023/03/19 00:28:26;;;;;;;0.17;0.17;;;;;;;18.70;54.51;101116.69;5014434;28;20033;-62
2023/03/19 00:30:52;;;;;;;0.20;0.20;;;;;;;18.67;54.82;101111.75;5013944;28;20497;-61
2023/03/19 00:33:18;;;;;;;0.20;0.20;;;;;;;18.40;55.84;101116.59;5013681;28;20062;-60
2023/03/19 00:35:45;;;;;;;0.10;0.10;;;;;;;17.60;58.65;101128.06;5014117;28;20095;-61
2023/03/19 00:38:10;;;;;;;0.20;0.20;;;;;;;18.35;56.38;101116.63;5013832;28;20088;-60
2023/03/19 00:40:36;;;;;;;0.20;0.20;;;;;;;18.38;56.46;101124.22;5013590;28;20037;-61
2023/03/19 00:43:01;;;;;;;0.20;0.20;;;;;;;18.33;56.67;101121.50;5014167;28;20018;-60
2023/03/19 00:45:29;;;;;;;0.20;0.20;;;;;;;17.88;58.61;101124.94;5013838;28;20045;-62
2023/03/19 00:47:55;;;;;;;0.10;0.10;;;;;;;17.17;62.47;101123.72;5014058;28;20029;-59
2023/03/19 00:50:20;;;;;;;0.20;0.20;;;;;;;17.31;62.21;101119.47;5013597;28;20409;-59
2023/03/19 00:52:46;;;;;;;0.10;0.10;;;;;;;17.67;61.19;101122.38;5013545;28;20026;-60
2023/03/19 00:55:11;;;;;;;0.10;0.10;;;;;;;17.93;59.79;101130.38;5014110;28;20514;-59
2023/03/19 00:57:36;;;;;;;0.20;0.20;;;;;;;17.78;61.79;101127.59;5013825;28;20030;-60
2023/03/19 01:00:03;;;;;;;0.20;0.20;;;;;;;18.25;59.62;101125.56;5013985;28;20382;-60
2023/03/19 01:02:30;;;;;;;0.17;0.17;;;;;;;17.82;61.03;101117.00;5013711;28;20034;-59
2023/03/19 01:04:55;;;;;;;0.20;0.20;;;;;;;18.33;59.61;101122.34;5013419;28;20030;-60
2023/03/19 01:07:21;;;;;;;0.10;0.10;;;;;;;18.17;59.82;101115.22;5014052;28;20033;-60
2023/03/19 01:09:46;;;;;;;0.20;0.20;;;;;;;18.06;60.50;101121.69;5013450;28;20045;-59
2023/03/19 01:12:12;;;;;;;0.20;0.20;;;;;;;17.93;60.91;101124.94;5013726;28;20037;-60
2023/03/19 01:14:37;;;;;;;0.10;0.10;;;;;;;18.44;59.15;101125.91;5013438;28;20068;-60
2023/03/19 01:17:02;;;;;;;0.20;0.20;;;;;;;18.18;60.60;101129.66;5013404;28;20104;-60
2023/03/19 01:19:28;;;;;;;0.20;0.20;;;;;;;17.97;61.25;101130.66;5013457;28;20018;-59
2023/03/19 01:21:54;;;;;;;0.10;0.10;;;;;;;18.23;60.07;101125.03;5013530;28;20042;-61
2023/03/19 01:24:20;;;;;;;0.20;0.20;;;;;;;17.87;61.20;101125.16;5011858;28;20041;-60
2023/03/19 01:26:45;;;;;;;0.20;0.20;;;;;;;17.89;60.95;101128.44;5012415;28;20394;-60
2023/03/19 01:29:10;;;;;;;0.20;0.20;;;;;;;18.02;60.62;101123.34;5013253;28;20057;-58
2023/03/19 01:31:36;;;;;;;0.20;0.20;;;;;;;17.71;61.92;101123.50;5013007;28;20054;-59
2023/03/19 01:34:02;;;;;;;0.20;0.20;;;;;;;18.15;60.36;101127.44;5013569;28;20097;-61
2023/03/19 01:36:28;;;;;;;0.22;0.22;;;;;;;18.25;59.80;101120.13;5012951;28;20049;-60
2023/03/19 01:38:54;;;;;;;0.20;0.20;;;;;;;17.78;61.02;101122.16;5012836;28;20038;-61
2023/03/19 01:41:19;;;;;;;0.20;0.20;;;;;;;18.22;59.97;101115.22;5012826;28;20141;-59
2023/03/19 01:43:45;;;;;;;0.17;0.17;;;;;;;17.97;60.06;101115.16;5013035;28;20021;-62
2023/03/19 01:46:21;;;;;;;0.20;0.20;;;;;;;18.18;59.59;101122.28;5013310;28;20026;-59
2023/03/19 01:48:58;;;;;;;0.13;0.13;;;;;;;18.11;60.50;101121.72;5012909;28;20029;-60
2023/03/19 01:51:27;;;;;;;0.10;0.10;;;;;;;17.42;63.05;101114.88;5013194;28;20088;-62
2023/03/19 01:53:57;;;;;;;0.10;0.10;;;;;;;17.21;63.59;101115.84;5012623;28;20050;-61
2023/03/19 01:56:28;;;;;;;0.20;0.20;;;;;;;18.24;60.61;101109.50;5012636;28;20030;-60
2023/03/19 01:58:57;;;;;;;0.10;0.10;;;;;;;18.28;59.75;101108.69;5012656;28;20128;-60
2023/03/19 02:01:22;;;;;;;0.20;0.20;;;;;;;18.47;59.05;101105.50;5013035;28;20397;-60
2023/03/19 02:03:50;;;;;;;0.20;0.20;;;;;;;18.08;59.93;101114.09;5012628;28;20026;-61
2023/03/19 02:06:18;;;;;;;0.10;0.10;;;;;;;17.90;61.30;101111.06;5012601;28;20030;-60
2023/03/19 02:08:45;;;;;;;0.20;0.20;;;;;;;17.71;60.98;101115.34;5012643;28;20477;-60
2023/03/19 02:11:11;;;;;;;0.10;0.10;;;;;;;17.67;61.71;101116.94;5012047;28;20128;-60
2023/03/19 02:13:37;;;;;;;0.10;0.10;;;;;;;17.85;61.59;101120.00;5012342;28;20470;-61
2023/03/19 02:16:03;;;;;;;0.10;0.10;;;;;;;17.66;61.47;101124.28;5012975;28;20029;-64
2023/03/19 02:18:29;;;;;;;0.20;0.20;;;;;;;17.76;61.20;101118.88;5012370;28;20120;-61
2023/03/19 02:21:13;;;;;;;0.20;0.20;;;;;;;18.20;59.24;101117.38;5011902;28;20409;-59
2023/03/19 02:23:57;;;;;;;0.30;0.30;;;;;;;18.28;58.37;101122.31;5011923;28;20107;-61
2023/03/19 02:26:25;;;;;;;0.20;0.20;;;;;;;17.66;61.29;101124.28;5011796;28;20038;-62
2023/03/19 02:28:52;;;;;;;0.10;0.10;;;;;;;17.89;60.44;101128.44;5011832;28;20046;-60
2023/03/19 02:31:19;;;;;;;0.10;0.10;;;;;;;17.78;60.57;101130.31;5012457;28;20390;-61
2023/03/19 02:33:56;;;;;;;0.10;0.10;;;;;;;18.19;59.05;101132.09;5011822;28;20401;-60
2023/03/19 02:36:22;;;;;;;0.15;0.15;;;;;;;17.91;59.78;101132.53;5011697;28;20038;-61
2023/03/19 02:38:47;;;;;;;0.10;0.10;;;;;;;17.54;61.68;101126.38;5011460;28;20037;-60
2023/03/19 02:41:13;;;;;;;0.28;0.28;;;;;;;17.72;60.52;101131.38;5011538;28;20054;-60
2023/03/19 02:43:40;;;;;;;0.30;0.30;;;;;;;18.02;59.34;101134.22;5011498;28;20095;-60
2023/03/19 02:46:08;;;;;;;0.20;0.20;;;;;;;17.47;59.93;101132.03;5012564;28;20056;-60
2023/03/19 02:48:35;;;;;;;0.10;0.10;;;;;;;17.66;59.95;101128.88;5011741;28;20038;-61
2023/03/19 02:51:00;;;;;;;0.20;0.20;;;;;;;17.69;59.90;101128.38;5011616;28;20397;-60
2023/03/19 02:53:26;;;;;;;0.10;0.10;;;;;;;17.96;58.90;101129.03;5011393;28;20053;-59
2023/03/19 02:55:52;;;;;;;0.20;0.20;;;;;;;17.94;59.14;101131.19;5011735;28;20037;-62
2023/03/19 02:58:17;;;;;;;0.20;0.20;;;;;;;17.92;59.33;101136.09;5011968;28;20025;-59
2023/03/19 03:00:43;;;;;;;0.20;0.20;;;;;;;18.00;58.88;101141.00;5011444;28;20057;-62
2023/03/19 03:03:08;;;;;;;0.30;0.30;;;;;;;17.73;59.33;101135.72;5011901;28;20093;-60
2023/03/19 03:05:34;;;;;;;0.20;0.20;;;;;;;17.89;58.94;101131.97;5011721;28;20080;-62
2023/03/19 03:08:00;;;;;;;0.20;0.20;;;;;;;17.77;59.07;101144.19;5011798;28;20131;-60
2023/03/19 03:10:26;;;;;;;0.20;0.20;;;;;;;17.67;59.77;101139.50;5011697;28;20070;-61
2023/03/19 03:12:51;;;;;;;0.30;0.30;;;;;;;17.71;59.59;101142.53;5011245;28;20404;-60
2023/03/19 03:15:17;;;;;;;0.20;0.20;;;;;;;17.48;59.58;101149.16;5011116;28;20034;-59
2023/03/19 03:17:44;;;;;;;0.10;0.10;;;;;;;17.47;60.17;101145.59;5011665;28;20038;-61
2023/03/19 03:20:10;;;;;;;0.17;0.17;;;;;;;17.60;60.04;101152.50;5011580;28;20165;-60
2023/03/19 03:22:36;;;;;;;0.20;0.20;;;;;;;17.32;61.16;101142.81;5011491;28;20454;-62
2023/03/19 03:25:02;;;;;;;0.22;0.22;;;;;;;17.64;60.39;101141.94;5011882;28;20013;-61
2023/03/19 03:27:28;;;;;;;0.20;0.20;;;;;;;17.76;60.04;101151.50;5011341;28;20502;-61
2023/03/19 03:29:53;;;;;;;0.20;0.20;;;;;;;17.65;59.83;101157.16;5011329;28;20038;-60
2023/03/19 03:32:18;;;;;;;0.20;0.20;;;;;;;17.84;59.66;101155.63;5011562;28;20030;-61
2023/03/19 03:34:45;;;;;;;0.20;0.20;;;;;;;17.71;60.52;101159.63;5010758;28;20038;-61
2023/03/19 03:37:10;;;;;;;0.20;0.20;;;;;;;17.85;59.44;101155.34;5011830;28;20470;-62
2023/03/19 03:39:36;;;;;;;0.20;0.20;;;;;;;17.98;58.97;101160.31;5011301;28;20085;-60
2023/03/19 03:42:02;;;;;;;0.20;0.20;;;;;;;17.54;60.42;101156.28;5011049;28;20034;-58
2023/03/19 03:44:27;;;;;;;0.20;0.20;;;;;;;17.93;59.01;101156.72;5011109;28;20034;-61
2023/03/19 03:46:53;;;;;;;0.20;0.20;;;;;;;17.97;58.86;101160.56;5010753;28;20041;-60
2023/03/19 03:49:18;;;;;;;0.20;0.20;;;;;;;18.04;58.44;101161.94;5011338;28;20474;-59
2023/03/19 03:51:43;;;;;;;0.20;0.20;;;;;;;18.07;58.60;101163.31;5010835;28;20034;-60
2023/03/19 03:54:09;;;;;;;0.10;0.10;;;;;;;17.97;59.17;101160.56;5010455;28;20426;-61
2023/03/19 03:56:35;;;;;;;0.17;0.17;;;;;;;17.85;58.60;101165.41;5010568;28;20068;-60
2023/03/19 03:59:01;;;;;;;0.30;0.30;;;;;;;17.57;59.85;101169.38;5011194;28;20037;-61
2023/03/19 04:01:26;;;;;;;0.10;0.10;;;;;;;17.74;59.28;101159.13;5011127;28;20022;-59
2023/03/19 04:03:52;;;;;;;0.17;0.17;;;;;;;17.70;58.91;101162.63;5011009;28;20026;-61
2023/03/19 04:06:20;;;;;;;0.20;0.20;;;;;;;17.40;60.55;101163.22;5011361;28;20034;-60
2023/03/19 04:08:46;;;;;;;0.20;0.20;;;;;;;17.55;59.38;101164.16;5010704;28;20045;-60
2023/03/19 04:11:11;;;;;;;0.10;0.10;;;;;;;17.54;59.61;101164.44;5010286;28;20042;-59
2023/03/19 04:13:37;;;;;;;0.20;0.20;;;;;;;17.31;59.25;101170.25;5010738;28;20030;-60
2023/03/19 04:16:04;;;;;;;0.10;0.10;;;;;;;17.46;60.14;101173.03;5011073;28;20068;-60
2023/03/19 04:18:30;;;;;;;0.15;0.15;;;;;;;17.54;59.64;101175.31;5010876;28;20368;-61
2023/03/19 04:20:56;;;;;;;0.20;0.20;;;;;;;17.48;59.63;101173.59;5010523;28;20497;-60
2023/03/19 04:23:22;;;;;;;0.20;0.20;;;;;;;17.20;61.47;101171.22;5010879;28;20046;-59
2023/03/19 04:25:47;;;;;;;0.28;0.28;;;;;;;17.01;62.07;101173.53;5010054;28;20095;-58
2023/03/19 04:28:13;;;;;;;0.10;0.10;;;;;;;17.33;60.44;101171.63;5011147;28;20065;-61
2023/03/19 04:30:38;;;;;;;0.20;0.20;;;;;;;16.99;61.49;101166.72;5010327;28;20029;-59
2023/03/19 04:33:03;;;;;;;0.20;0.20;;;;;;;17.40;59.50;101160.50;5010165;28;20393;-61
2023/03/19 04:35:30;;;;;;;0.20;0.20;;;;;;;17.00;60.95;101163.75;5009967;28;20032;-61
2023/03/19 04:37:55;;;;;;;0.20;0.20;;;;;;;16.71;61.97;101170.56;5010489;28;20596;-60
2023/03/19 04:40:20;;;;;;;0.10;0.10;;;;;;;16.83;61.44;101170.38;5009499;28;20112;-60
2023/03/19 04:42:46;;;;;;;0.20;0.20;;;;;;;17.11;60.19;101168.19;5009923;28;20394;-59
2023/03/19 04:45:11;;;;;;;0.20;0.20;;;;;;;17.29;59.42;101170.50;5010261;28;20026;-59
2023/03/19 04:47:37;;;;;;;0.17;0.17;;;;;;;17.06;61.27;101165.44;5010492;28;20410;-59
2023/03/19 04:50:03;;;;;;;0.20;0.20;;;;;;;17.21;60.50;101171.00;5010348;28;20116;-60
2023/03/19 04:52:28;;;;;;;0.20;0.20;;;;;;;17.48;59.79;101176.31;5010763;28;20112;-60
2023/03/19 04:54:54;;;;;;;0.20;0.20;;;;;;;17.41;59.77;101178.47;5010064;28;20375;-59
2023/03/19 04:57:20;;;;;;;0.10;0.10;;;;;;;17.28;60.28;101178.91;5009863;28;20049;-61
2023/03/19 04:59:45;;;;;;;0.20;0.20;;;;;;;17.22;62.07;101178.03;5010554;28;20099;-61
2023/03/19 05:02:11;;;;;;;0.10;0.10;;;;;;;17.35;60.90;101183.06;5013618;28;20038;-63
2023/03/19 05:04:37;;;;;;;0.20;0.20;;;;;;;17.68;59.01;101183.81;5007083;28;20486;-60
2023/03/19 05:07:02;;;;;;;0.10;0.10;;;;;;;17.72;59.59;101177.59;5013758;28;20026;-62
2023/03/19 05:09:29;;;;;;;0.10;0.10;;;;;;;17.72;59.58;101182.19;5012983;28;20088;-59
2023/03/19 05:11:55;;;;;;;0.20;0.20;;;;;;;17.60;59.92;101187.84;5012903;28;20042;-59
2023/03/19 05:14:20;;;;;;;0.10;0.10;;;;;;;17.20;60.72;101190.25;5013054;28;20037;-59
2023/03/19 05:16:46;;;;;;;0.10;0.10;;;;;;;17.56;60.01;101189.44;5013134;28;20034;-60
2023/03/19 05:19:11;;;;;;;0.20;0.20;;;;;;;17.60;59.63;101182.41;5013385;28;20022;-59
2023/03/19 05:21:36;;;;;;;0.20;0.20;;;;;;;17.63;59.15;101192.75;5013157;28;20081;-60
2023/03/19 05:24:02;;;;;;;0.20;0.20;;;;;;;17.08;61.04;101197.78;5013232;28;20034;-61
2023/03/19 05:26:27;;;;;;;0.20;0.20;;;;;;;17.13;61.02;101189.66;5013030;28;20042;-61
2023/03/19 05:28:53;;;;;;;0.10;0.10;;;;;;;17.31;60.71;101195.53;5012834;28;20037;-61
2023/03/19 05:31:18;;;;;;;0.20;0.20;;;;;;;17.21;61.04;101189.19;5013712;28;20026;-62
2023/03/19 05:33:43;;;;;;;0.38;0.38;;;;;;;17.50;59.69;101193.22;5011519;28;20042;-62
2023/03/19 05:36:09;;;;;;;0.20;0.20;;;;;;;17.58;59.77;101202.75;5013158;28;20363;-61
2023/03/19 05:38:34;;;;;;;0.20;0.20;;;;;;;16.90;62.25;101200.88;5013085;28;20030;-61
2023/03/19 05:41:04;;;;;;;0.20;0.20;;;;;;;17.44;60.54;101205.09;5013058;28;20420;-60
2023/03/19 05:43:30;;;;;;;0.13;0.13;;;;;;;17.31;60.11;101209.09;5012867;28;20054;-61
2023/03/19 05:45:55;;;;;;;0.20;0.20;;;;;;;17.33;59.37;101216.97;5012818;28;20492;-61
2023/03/19 05:48:21;;;;;;;0.20;0.20;;;;;;;16.94;60.74;101208.25;5012905;28;20080;-60
2023/03/19 05:50:46;;;;;;;0.30;0.30;;;;;;;17.17;59.71;101207.06;5012772;28;20398;-60
2023/03/19 05:53:12;;;;;;;0.30;0.30;;;;;;;16.98;60.22;101213.97;5012638;28;20046;-61
2023/03/19 05:55:38;;;;;;;0.10;0.10;;;;;;;17.16;59.37;101216.31;5012871;28;20383;-60
2023/03/19 05:58:03;;;;;;;0.30;0.30;;;;;;;17.00;60.02;101219.97;5012977;28;20033;-60
2023/03/19 06:00:29;;;;;;;0.10;0.10;;;;;;;17.01;59.71;101233.28;5012438;28;20041;-59
2023/03/19 06:02:54;;;;;;;0.17;0.17;;;;;;;16.67;61.37;101232.69;5012325;28;20064;-61
2023/03/19 06:05:20;;;;;;;0.20;0.20;;;;;;;16.72;60.76;101233.81;5012317;28;20038;-60
2023/03/19 06:07:45;;;;;;;0.30;0.30;;;;;;;16.67;61.65;101232.69;5012221;28;20033;-60
2023/03/19 06:10:11;;;;;;;0.30;0.30;;;;;;;16.85;61.15;101233.38;5012903;28;20036;-60
2023/03/19 06:12:37;;;;;;;0.20;0.20;;;;;;;16.62;61.59;101229.09;5012189;28;20030;-60
2023/03/19 06:15:02;;;;;;;0.20;0.20;;;;;;;16.95;60.66;101230.75;5012256;28;20030;-59
2023/03/19 06:17:28;;;;;;;0.20;0.20;;;;;;;16.98;59.80;101227.56;5012228;28;20046;-59
2023/03/19 06:19:54;;;;;;;0.40;0.40;;;;;;;16.81;61.11;101233.09;5012369;28;20277;-60
2023/03/19 06:22:19;;;;;;;0.22;0.22;;;;;;;16.99;60.13;101234.59;5012779;28;20065;-59
2023/03/19 06:24:44;;;;;;;0.17;0.17;;;;;;;16.78;60.98;101239.03;5012201;28;20076;-59
2023/03/19 06:27:10;;;;;;;0.20;0.20;;;;;;;16.16;63.52;101246.69;5012015;28;20544;-59
2023/03/19 06:29:35;;;;;;;0.30;0.30;;;;;;;16.72;61.47;101244.66;5012054;28;20072;-61
2023/03/19 06:32:01;;;;;;;0.20;0.20;;;;;;;16.47;62.44;101251.41;5011999;28;20117;-60
2023/03/19 06:34:27;;;;;;;0.20;0.20;;;;;;;16.48;62.68;101258.53;5012207;28;20030;-60
2023/03/19 06:36:52;;;;;;;0.30;0.30;;;;;;;16.39;63.38;101257.28;5011966;28;20038;-60
2023/03/19 06:39:18;;;;;;;0.25;0.25;;;;;;;16.59;62.51;101257.56;5012045;28;20453;-60
2023/03/19 06:41:43;;;;;;;0.20;0.20;;;;;;;16.64;62.50;101270.38;5011737;28;20038;-61
2023/03/19 06:44:09;;;;;;;0.20;0.20;;;;;;;16.79;61.67;101275.13;5012077;28;20046;-60
2023/03/19 06:46:34;;;;;;;0.22;0.22;;;;;;;16.11;64.21;101279.19;5011466;28;20029;-61
2023/03/19 06:49:00;;;;;;;0.20;0.20;;;;;;;16.22;63.99;101280.94;5011990;28;20025;-60
2023/03/19 06:51:26;;;;;;;0.20;0.20;;;;;;;16.64;63.08;101276.63;5011882;28;20393;-62
2023/03/19 06:53:52;;;;;;;0.17;0.17;;;;;;;16.79;62.32;101275.13;5011183;28;20050;-60
2023/03/19 06:56:17;;;;;;;0.17;0.17;;;;;;;16.68;62.39;101282.34;5008716;28;20037;-61
2023/03/19 06:58:43;;;;;;;0.13;0.13;;;;;;;16.30;63.60;101285.09;5010988;28;20028;-60
2023/03/19 07:01:08;;;;;;;0.10;0.10;;;;;;;16.09;64.91;101284.03;5011402;28;20021;-61
2023/03/19 07:03:33;;;;;;;0.20;0.20;;;;;;;16.85;62.85;101284.97;5011083;28;20052;-59
2023/03/19 07:05:59;;;;;;;0.40;0.40;;;;;;;17.00;61.65;101283.22;5010637;28;20045;-60
2023/03/19 07:08:28;;;;;;;0.20;0.20;;;;;;;16.83;62.20;101298.78;5009737;28;20109;-60
2023/03/19 07:11:01;;;;;;;0.20;0.20;;;;;;;16.85;62.63;101299.34;5010072;28;20107;-61
2023/03/19 07:13:26;;;;;;;0.20;0.20;;;;;;;16.48;64.12;101295.63;5009691;28;20026;-60
2023/03/19 07:15:52;;;;;;;0.30;0.30;;;;;;;17.26;61.47;101297.84;5010999;28;20073;-59
2023/03/19 07:18:17;;;;;;;0.22;0.22;;;;;;;17.33;61.50;101293.06;5009657;28;20041;-60
2023/03/19 07:20:43;;;;;;;0.13;0.13;;;;;;;17.42;60.58;101302.34;5011911;28;20038;-61
2023/03/19 07:23:08;;;;;;;0.32;0.32;;;;;;;16.30;63.92;101307.63;5010402;28;20053;-61
2023/03/19 07:25:33;;;;;;;0.20;0.20;;;;;;;16.64;63.72;101311.91;5010412;28;20022;-60
2023/03/19 07:27:59;;;;;;;0.20;0.20;;;;;;;16.75;63.11;101314.69;5010599;28;20022;-62
2023/03/19 07:30:24;;;;;;;0.20;0.20;;;;;;;16.57;63.91;101315.84;5010217;28;20405;-59
2023/03/19 07:32:50;;;;;;;0.20;0.20;;;;;;;16.15;65.85;101321.00;5010380;28;20034;-61
2023/03/19 07:35:15;;;;;;;0.30;0.30;;;;;;;17.28;62.55;101315.53;5010251;28;20056;-59
2023/03/19 07:37:41;;;;;;;0.20;0.20;;;;;;;16.83;63.05;101322.41;5010592;28;20052;-61
2023/03/19 07:40:07;;;;;;;0.30;0.30;;;;;;;16.80;63.25;101328.34;5010871;28;20165;-61
2023/03/19 07:42:35;;;;;;;0.17;0.17;;;;;;;16.45;64.82;101332.22;5010226;28;20048;-59
2023/03/19 07:45:01;;;;;;;0.17;0.17;;;;;;;16.63;64.02;101331.94;5010174;28;20480;-60
2023/03/19 07:47:26;;;;;;;0.10;0.10;;;;;;;16.73;63.35;101336.69;5010218;28;20026;-59
2023/03/19 07:49:52;;;;;;;0.20;0.20;;;;;;;17.02;62.11;101337.28;5010343;28;20428;-60
2023/03/19 07:52:18;;;;;;;0.20;0.20;;;;;;;17.20;61.34;101326.03;5010810;28;20030;-60
2023/03/19 07:54:43;;;;;;;0.10;0.10;;;;;;;16.03;65.16;101335.72;5009829;28;20084;-60
2023/03/19 07:57:08;;;;;;;0.20;0.20;;;;;;;16.35;64.94;101342.94;5009669;28;20486;-61
2023/03/19 07:59:34;;;;;;;0.10;0.10;;;;;;;16.83;63.21;101349.53;5010000;28;20536;-60
2023/03/19 08:01:59;;;;;;;0.30;0.30;;;;;;;15.62;66.39;101347.81;5007027;28;20033;-61
2023/03/19 08:04:24;;;;;;;0.17;0.17;;;;;;;16.36;64.39;101341.88;5009825;28;20021;-60
2023/03/19 08:06:50;;;;;;;0.20;0.20;;;;;;;16.78;62.04;101350.31;5008120;28;20037;-61
2023/03/19 08:09:15;;;;;;;0.13;0.13;;;;;;;16.28;63.22;101345.03;5009295;28;20022;-60
2023/03/19 08:11:40;;;;;;;0.20;0.20;;;;;;;16.57;62.32;101359.25;5009331;28;20133;-61
2023/03/19 08:14:06;;;;;;;0.10;0.10;;;;;;;15.92;65.02;101355.59;5009626;28;20092;-61
2023/03/19 08:16:31;;;;;;;0.10;0.10;;;;;;;16.38;63.06;101356.00;5009896;28;20378;-59
2023/03/19 08:18:57;;;;;;;0.15;0.15;;;;;;;16.59;61.82;101360.66;5009992;28;20014;-60
2023/03/19 08:21:22;;;;;;;0.20;0.20;;;;;;;15.72;65.01;101359.63;5007128;28;20042;-60
2023/03/19 08:23:49;;;;;;;0.20;0.20;;;;;;;16.42;63.21;101367.19;5010553;28;20041;-61
2023/03/19 08:26:15;;;;;;;0.10;0.10;;;;;;;15.96;64.54;101373.81;5009989;28;20553;-61
2023/03/19 08:28:40;;;;;;;0.20;0.20;;;;;;;16.20;63.66;101369.03;5009606;28;20022;-62
2023/03/19 08:31:10;;;;;;;0.20;0.20;;;;;;;16.18;63.96;101377.41;5010465;28;20017;-61
2023/03/19 08:33:36;;;;;;;0.10;0.10;;;;;;;16.46;62.28;101373.75;5009902;28;20037;-61
2023/03/19 08:36:11;;;;;;;0.20;0.20;;;;;;;17.06;61.08;101382.66;5008600;28;20034;-62
2023/03/19 08:38:37;;;;;;;0.20;0.20;;;;;;;16.44;62.85;101376.72;5012998;28;20034;-60
2023/03/19 08:41:03;;;;;;;0.10;0.10;;;;;;;16.23;63.23;101379.41;5012835;28;20026;-59
2023/03/19 08:43:33;;;;;;;0.15;0.15;;;;;;;17.29;60.31;101379.69;5013759;28;20543;-60
2023/03/19 08:46:03;;;;;;;0.10;0.10;;;;;;;16.74;62.08;101380.94;5013580;28;20057;-60
2023/03/19 08:48:28;;;;;;;0.10;0.10;;;;;;;17.13;59.83;101380.59;5013487;28;20101;-60
2023/03/19 08:50:55;;;;;;;0.20;0.20;;;;;;;17.01;61.37;101389.94;5013761;28;20034;-60
2023/03/19 08:53:22;;;;;;;0.10;0.10;;;;;;;16.64;62.43;101397.91;5009711;28;20034;-60
2023/03/19 08:55:55;;;;;;;0.20;0.20;;;;;;;17.28;59.70;101399.75;5013148;28;20040;-62
2023/03/19 08:58:20;;;;;;;0.20;0.20;;;;;;;17.00;61.08;101401.88;5011569;28;20022;-60
2023/03/19 09:00:46;;;;;;;0.10;0.10;;;;;;;16.95;61.49;101407.25;5012873;28;20083;-62
2023/03/19 09:03:12;;;;;;;0.20;0.20;;;;;;;16.71;62.92;101416.72;5012599;28;20036;-62
2023/03/19 09:05:37;;;;;;;0.20;0.20;;;;;;;16.81;60.82;101417.66;5012941;28;20108;-61
2023/03/19 09:08:03;;;;;;;0.20;0.20;;;;;;;16.62;62.57;101424.47;5012292;28;20414;-61
2023/03/19 09:10:28;;;;;;;0.20;0.20;;;;;;;16.98;60.96;101428.47;5013659;28;20111;-61
2023/03/19 09:12:54;;;;;;;0.13;0.13;;;;;;;17.39;59.94;101425.16;5009938;28;20029;-60
2023/03/19 09:15:19;;;;;;;0.20;0.20;;;;;;;16.58;62.17;101428.75;5011146;28;20046;-60
2023/03/19 09:17:45;;;;;;;0.10;0.10;;;;;;;16.87;61.73;101432.94;5012439;28;20548;-60
2023/03/19 09:20:10;;;;;;;0.10;0.10;;;;;;;16.95;61.13;101435.22;5012557;28;20072;-60
2023/03/19 09:22:35;;;;;;;0.20;0.20;;;;;;;16.81;61.32;101442.09;5012363;28;20363;-63
2023/03/19 09:25:01;;;;;;;0.20;0.20;;;;;;;17.18;60.20;101437.66;5013193;28;20021;-62
2023/03/19 09:27:27;;;;;;;0.20;0.20;;;;;;;17.34;59.20;101439.50;5011782;28;20033;-61
2023/03/19 09:29:53;;;;;;;0.20;0.20;;;;;;;17.59;59.33;101438.97;5012354;28;20034;-60
2023/03/19 09:32:18;;;;;;;0.20;0.20;;;;;;;16.92;60.85;101443.88;5011942;28;20382;-59
2023/03/19 09:34:44;;;;;;;0.17;0.17;;;;;;;17.52;59.26;101441.91;5006338;28;20072;-59
2023/03/19 09:37:10;;;;;;;0.20;0.20;;;;;;;17.95;57.84;101440.94;5008858;28;20441;-60
2023/03/19 09:39:36;;;;;;;0.10;0.10;;;;;;;17.73;58.88;101442.09;5007971;28;20088;-61
2023/03/19 09:42:16;;;;;;;0.20;0.20;;;;;;;17.50;60.42;101444.06;5005467;28;20546;-62
2023/03/19 09:44:44;;;;;;;0.20;0.20;;;;;;;18.31;58.03;101445.59;5006982;28;20111;-61
2023/03/19 09:47:33;;;;;;;0.17;0.17;;;;;;;18.77;56.03;101454.06;5008508;28;20037;-60
2023/03/19 09:50:03;;;;;;;0.20;0.20;;;;;;;18.06;57.82;101460.88;5009032;28;20467;-60
2023/03/19 09:52:40;;;;;;;0.20;0.20;;;;;;;18.32;57.32;101449.94;5009529;28;20042;-59
2023/03/19 09:55:17;;;;;;;0.17;0.17;;;;;;;18.20;57.44;101457.44;5007832;28;20544;-61
2023/03/19 09:57:44;;;;;;;0.17;0.17;;;;;;;18.20;57.25;101456.66;5006763;28;20041;-60
2023/03/19 10:00:18;;;;;;;0.20;0.20;;;;;;;18.89;55.59;101443.75;5007302;28;20034;-62
2023/03/19 10:02:43;;;;;;;0.20;0.20;;;;;;;18.57;56.02;101445.78;5006626;28;20057;-60
2023/03/19 10:05:27;;;;;;;0.20;0.20;;;;;;;18.83;55.67;101448.34;5007292;28;20673;-60
2023/03/19 10:08:02;;;;;;;0.20;0.20;;;;;;;18.79;55.57;101452.69;5007665;28;20401;-60
2023/03/19 10:10:47;;;;;;;0.30;0.30;;;;;;;19.32;55.26;101456.19;5007836;28;20038;-62
2023/03/19 10:13:30;;;;;;;0.10;0.10;;;;;;;18.92;56.44;101459.56;5005218;28;20421;-61
2023/03/19 10:15:59;;;;;;;0.30;0.30;;;;;;;19.66;53.60;101458.22;5006171;28;20116;-61
2023/03/19 10:18:31;;;;;;;0.20;0.20;;;;;;;19.22;54.64;101457.00;5007691;28;20037;-59
2023/03/19 10:21:04;;;;;;;0.10;0.10;;;;;;;19.95;52.59;101453.88;5007465;28;20123;-59
2023/03/19 10:23:43;;;;;;;0.10;0.10;;;;;;;20.00;51.13;101458.53;5007558;28;20034;-60
2023/03/19 10:26:12;;;;;;;0.10;0.10;;;;;;;19.04;53.99;101462.91;5007011;28;20413;-60
2023/03/19 10:28:41;;;;;;;0.10;0.10;;;;;;;18.90;54.60;101457.13;5005069;28;20060;-61
2023/03/19 10:31:24;;;;;;;0.20;0.20;;;;;;;19.67;53.48;101464.50;5008025;28;20273;-60
2023/03/19 10:34:01;;;;;;;0.10;0.10;;;;;;;19.77;53.41;101469.97;5004885;28;20033;-61
2023/03/19 10:36:33;;;;;;;0.20;0.20;;;;;;;18.63;56.30;101456.44;5006912;28;20030;-62
2023/03/19 10:38:59;;;;;;;0.28;0.28;;;;;;;19.57;55.19;101462.56;5007195;28;20045;-60
2023/03/19 10:41:47;;;;;;;0.10;0.10;;;;;;;20.31;51.88;101462.09;5007519;28;20045;-60
2023/03/19 10:44:30;;;;;;;0.10;0.10;;;;;;;20.11;52.44;101462.88;5006899;28;20108;-62
2023/03/19 10:47:10;;;;;;;0.20;0.20;;;;;;;20.09;52.44;101468.63;5005348;28;20034;-60
2023/03/19 10:49:35;;;;;;;0.10;0.10;;;;;;;19.91;52.35;101460.97;5006262;28;20179;-60
2023/03/19 10:52:01;;;;;;;0.30;0.30;;;;;;;20.30;51.13;101469.47;5007194;28;20022;-63
2023/03/19 10:54:27;;;;;;;0.10;0.10;;;;;;;20.04;50.45;101462.34;5007118;28;20108;-61
2023/03/19 10:56:58;;;;;;;0.20;0.20;;;;;;;20.69;49.84;101469.69;5006823;28;20040;-60
2023/03/19 10:59:28;;;;;;;0.20;0.20;;;;;;;18.30;58.07;101462.16;5005142;28;20026;-60
2023/03/19 11:02:02;;;;;;;0.20;0.20;;;;;;;18.54;57.81;101477.06;5004869;28;20033;-60
2023/03/19 11:04:28;;;;;;;0.10;0.10;;;;;;;18.35;59.40;101473.09;5005897;28;20048;-60
2023/03/19 11:07:16;;;;;;;0.13;0.13;;;;;;;19.25;57.02;101470.06;5007201;28;20490;-60
2023/03/19 11:09:46;;;;;;;0.30;0.30;;;;;;;19.48;56.62;101464.16;5005561;28;20107;-61
2023/03/19 11:12:19;;;;;;;0.20;0.20;;;;;;;19.64;54.92;101456.84;5004765;28;20041;-62
2023/03/19 11:14:47;;;;;;;0.20;0.20;;;;;;;19.54;56.39;101470.44;5005708;28;20030;-61
2023/03/19 11:17:13;;;;;;;0.10;0.10;;;;;;;18.83;57.00;101466.63;5005119;28;20100;-61
2023/03/19 11:19:40;;;;;;;0.20;0.20;;;;;;;18.65;57.90;101465.16;5006301;28;20026;-60
2023/03/19 11:22:16;;;;;;;0.10;0.10;;;;;;;19.77;55.66;101467.25;5007151;28;20017;-62
2023/03/19 11:24:51;;;;;;;0.10;0.10;;;;;;;19.94;54.14;101468.63;5004735;28;20067;-61